Hlavní strana
METAR-TAF:

METAR-TAF

Letiště :

Lagos, Nigérie

zeměpisná šířka: 06-35N, zeměpisná délka: 003-20E, výška: 40 m

Aktuální stav počasí

Zpráva byla vytvořena před 1 hodinou a 4 minutami, v 21:00 UTC
vítr z různých směrů 2 kt
Teplota 26°C
Vlhkost vzduchu 84%
Tlak 1013 hPa
Viditelnost: 8000 m
Skoro jasno ve výšce 1000 ft

METAR: DNMM 252100Z VRB02KT 8000 FEW010 26/23 Q1013 NOSIG

Čas: 23:04 (22:04 UTC)

Předpověď počasí

Zpráva byla vytvořena před 6 hodinami a 14 minutami, v 15:50 UTC
Předpověď platná od 25 v 18 UTC do 26 v 24 UTC
vítr z různých směrů 2 kt
Viditelnost: 8000 m
Polojasno ve výšce 1100 ft
Dočasný
od 26 v 05 UTC do 26 v 08 UTC
Viditelnost: 5000 m
kouřmo
Pravděpodobnost 30%
od 26 v 06 UTC do 26 v 07 UTC
Viditelnost: 3000 m
Změna
od 26 v 08 UTC do 26 v 10 UTC
Jihozápadní vítr 10 kt
Oblačno až skoro zataženo ve výšce 1400 ft

TAF: DNMM 251550Z 2518/2624 VRB02KT 8000 SCT011 TEMPO 2605/2608 5000 BR PROB30 2606/2607 3000 BECMG 2608/2610 23010KT BKN014

Stav a předpovědi počasí z více než 4 000 letišť (zprávy METAR a TAF).

Červené a žluté tečky na mapě představují dostupné meteorologické stanice.

Když kurzor umístíte na tečku, zobrazí se název stanice.

Pak kliknutím zobrazíte stav a předpověď počasí.

Chcete-li změnit mapu, kliknutím na zelené tlačítko se znaménkem +mapu přiblížíte, kliknutím na zelené tlačítko se znaménkem – mapu oddálíte a kliknutím na zelené šipky přejdete na sousední mapy.


METAR-TAF: